Time;durP1;ratioP1;P1;durP2;ratioP2;P2;SDS_P1;SDS_P2;PMS_P1;PMS_P2;Temp;Humidity;BMP_temperature;BMP_pressure;BME280_temperature;BME280_humidity;BME280_pressure;Samples;Min_cycle;Max_cycle;Signal;HPM_P1;HPM_P2
2022/10/11 00:00:00;;;;;;;12.00;3.83;;;7.10;99.90;;;-144.05;84.61;125687.94;5055315;28;20591;-82
2022/10/11 00:02:26;;;;;;;11.43;4.45;;;7.10;99.90;;;-144.05;84.31;125687.94;5053788;28;20037;-82
2022/10/11 00:04:52;;;;;;;22.33;4.78;;;7.10;99.90;;;-144.05;84.35;125687.94;5036842;28;20105;-83
2022/10/11 00:07:19;;;;;;;17.55;5.15;;;7.00;99.90;;;-144.05;84.41;125687.94;5039822;28;20033;-84
2022/10/11 00:09:45;;;;;;;18.27;4.32;;;7.00;99.90;;;-144.05;84.47;125687.94;5040694;28;20029;-83
2022/10/11 00:12:11;;;;;;;14.77;4.15;;;7.00;99.90;;;-144.05;84.43;125687.94;5058416;28;20044;-81
2022/10/11 00:14:38;;;;;;;13.35;4.90;;;7.00;99.90;;;-144.05;84.54;125687.94;5059022;28;20056;-82
2022/10/11 00:17:06;;;;;;;14.40;4.35;;;7.00;99.90;;;-144.05;84.60;125687.94;5039903;28;20483;-82
2022/10/11 00:19:33;;;;;;;13.45;4.15;;;7.00;99.90;;;-144.05;84.47;125687.94;5057138;28;20025;-83
2022/10/11 00:21:59;;;;;;;9.60;3.90;;;7.00;99.90;;;-144.05;84.39;125687.94;5065351;28;20058;-81
2022/10/11 00:24:25;;;;;;;14.60;4.72;;;7.00;99.90;;;-144.05;84.54;125687.94;5048406;28;20028;-81
2022/10/11 00:26:50;;;;;;;14.05;4.40;;;7.00;99.90;;;-144.05;84.53;125687.94;5066540;28;20443;-83
2022/10/11 00:29:16;;;;;;;15.50;4.35;;;6.90;99.90;;;-144.05;84.41;125687.94;5058766;28;20025;-82
2022/10/11 00:31:42;;;;;;;11.60;4.25;;;6.90;99.90;;;-144.05;84.41;125687.94;5058676;28;20036;-82
2022/10/11 00:34:10;;;;;;;11.35;4.47;;;6.90;99.90;;;-144.05;84.41;125687.94;5057941;28;20089;-81
2022/10/11 00:36:36;;;;;;;10.93;3.83;;;6.80;99.90;;;-144.05;84.30;125687.94;5041188;28;20124;-82
2022/10/11 00:39:03;;;;;;;12.55;4.25;;;6.80;99.90;;;-144.05;84.52;125687.94;5058870;28;20065;-82
2022/10/11 00:41:29;;;;;;;12.07;3.88;;;6.80;99.90;;;-144.05;84.56;125687.94;5039682;28;20480;-82
2022/10/11 00:44:26;;;;;;;11.30;4.97;;;6.70;99.90;;;-144.05;85.44;125687.94;5056537;28;20036;-82
2022/10/11 00:47:11;;;;;;;21.08;6.07;;;6.70;99.90;;;-144.05;85.09;125687.94;5038337;28;20040;-82
2022/10/11 00:50:00;;;;;;;15.05;4.90;;;6.70;99.90;;;-144.05;85.07;125687.94;5038684;28;20064;-84
2022/10/11 00:52:36;;;;;;;17.98;4.95;;;6.80;99.90;;;-144.05;85.21;125687.94;5037982;28;20029;-81
2022/10/11 00:55:15;;;;;;;11.80;4.40;;;6.80;99.90;;;-144.05;85.02;125687.94;5055611;28;20104;-81
2022/10/11 00:57:51;;;;;;;17.35;5.40;;;6.80;99.90;;;-144.05;85.03;125687.94;5038255;28;20067;-80
2022/10/11 01:00:18;;;;;;;;;;;6.80;99.90;;;-144.05;84.81;125687.94;5053961;28;20029;-81
2022/10/11 01:02:45;;;;;;;21.95;5.97;;;6.80;99.90;;;-144.05;85.00;125687.94;5057075;28;20347;-83
2022/10/11 01:05:17;;;;;;;28.38;6.45;;;6.80;99.90;;;-144.05;85.00;125687.94;5057340;28;20040;-83
2022/10/11 01:07:46;;;;;;;13.85;4.13;;;6.80;99.90;;;-144.05;84.89;125687.94;5039192;28;20029;-83
2022/10/11 01:10:13;;;;;;;22.52;5.68;;;6.70;99.90;;;-144.05;85.22;125687.94;5056975;28;20096;-83
2022/10/11 01:13:33;;;;;;;12.30;4.75;;;6.70;99.90;;;-144.05;85.07;125687.94;5038010;28;20031;-83
2022/10/11 01:16:27;;;;;;;13.27;4.13;;;6.70;99.90;;;-144.05;85.03;125687.94;5038809;28;20479;-82
2022/10/11 01:19:32;;;;;;;20.67;5.10;;;6.70;99.90;;;-144.05;85.37;125687.94;5037885;28;20036;-82
2022/10/11 01:23:09;;;;;;;18.13;4.68;;;6.70;99.90;;;-144.05;85.05;125687.94;5056043;28;20090;-83
2022/10/11 01:26:06;;;;;;;17.15;4.95;;;6.70;99.90;;;-144.05;85.11;125687.94;5030858;28;20037;-81
2022/10/11 01:29:11;;;;;;;19.60;5.30;;;6.70;99.90;;;-144.05;85.24;125687.94;5050067;28;20502;-82
2022/10/11 01:32:00;;;;;;;14.05;4.78;;;6.70;99.90;;;-144.05;85.02;125687.94;5060558;28;20084;-82
2022/10/11 01:34:46;;;;;;;14.88;4.85;;;6.70;99.90;;;-144.05;84.99;125687.94;5059973;28;20021;-83
2022/10/11 01:37:31;;;;;;;14.43;4.30;;;6.60;99.90;;;-144.05;84.91;125687.94;5063843;28;20122;-82
2022/10/11 01:40:04;;;;;;;14.32;4.35;;;6.60;99.90;;;-144.05;85.09;125687.94;5064573;28;20029;-83
2022/10/11 01:42:31;;;;;;;12.32;4.80;;;6.50;99.90;;;-144.05;85.07;125687.94;5061202;28;20025;-82
2022/10/11 01:44:58;;;;;;;14.15;4.47;;;6.60;99.90;;;-144.05;85.30;125687.94;5043001;28;20033;-81
2022/10/11 01:47:26;;;;;;;20.33;5.32;;;6.50;99.90;;;-144.05;85.31;125687.94;5043423;28;20029;-83
2022/10/11 01:50:00;;;;;;;15.00;5.25;;;6.50;99.90;;;-144.05;85.25;125687.94;5042877;28;20032;-84
2022/10/11 01:52:35;;;;;;;19.27;4.97;;;6.50;99.90;;;-144.05;85.27;125687.94;5059836;28;20029;-83
2022/10/11 01:55:49;;;;;;;11.93;4.65;;;6.50;99.90;;;-144.05;84.86;125687.94;5040652;28;20040;-82
2022/10/11 01:58:42;;;;;;;11.50;4.25;;;6.40;99.90;;;-144.05;85.09;125687.94;5058252;28;20037;-82
2022/10/11 02:02:08;;;;;;;12.93;4.45;;;6.40;99.90;;;-144.05;85.46;125687.94;5040285;28;20044;-82
2022/10/11 02:04:56;;;;;;;12.25;4.60;;;6.40;99.90;;;-144.05;85.22;125687.94;5057836;28;20108;-82
2022/10/11 02:08:18;;;;;;;13.82;4.38;;;6.40;99.90;;;-144.05;85.02;125687.94;5057577;28;20029;-80
2022/10/11 02:11:03;;;;;;;12.20;4.60;;;6.40;99.90;;;-144.05;85.12;125687.94;5057294;28;20507;-82
2022/10/11 02:14:10;;;;;;;18.10;5.45;;;6.40;99.90;;;-144.05;85.09;125687.94;5058293;28;20045;-83
2022/10/11 02:16:52;;;;;;;12.63;4.30;;;6.40;99.90;;;-144.05;85.22;125687.94;5056217;28;20029;-80
2022/10/11 02:19:29;;;;;;;13.50;5.00;;;6.50;99.90;;;-144.05;84.90;125687.94;5065711;28;20080;-81
2022/10/11 02:22:06;;;;;;;16.77;4.72;;;6.50;99.90;;;-144.05;85.13;125687.94;5055077;28;20408;-80
2022/10/11 02:24:44;;;;;;;14.25;5.18;;;6.40;99.90;;;-144.05;85.29;125687.94;5055847;28;20049;-80
2022/10/11 02:27:16;;;;;;;21.63;5.43;;;6.40;99.90;;;-144.05;85.18;125687.94;5055577;28;20036;-81
2022/10/11 02:29:48;;;;;;;15.55;4.82;;;6.40;99.90;;;-144.05;85.41;125687.94;5037409;28;20392;-83
2022/10/11 02:32:18;;;;;;;17.98;5.53;;;6.40;99.90;;;-144.05;85.32;125687.94;5037356;28;20545;-82
2022/10/11 02:34:55;;;;;;;15.98;5.43;;;6.40;99.90;;;-144.05;85.50;125687.94;5037502;28;20074;-79
2022/10/11 02:38:00;;;;;;;19.10;5.50;;;6.40;99.90;;;-144.05;85.21;125687.94;5037500;28;20035;-82
2022/10/11 02:40:43;;;;;;;14.60;5.07;;;6.30;99.90;;;-144.05;85.41;125687.94;5055470;28;20024;-82
2022/10/11 02:43:30;;;;;;;18.50;5.45;;;6.30;99.90;;;-144.05;85.61;125687.94;5055351;28;20035;-82
2022/10/11 02:46:00;;;;;;;12.65;4.07;;;6.30;99.90;;;-144.05;85.04;125687.94;5037787;28;20481;-81
2022/10/11 02:48:28;;;;;;;13.70;4.43;;;6.20;99.90;;;-144.05;84.94;125687.94;5037642;28;20036;-81
2022/10/11 02:50:57;;;;;;;16.40;4.82;;;6.20;99.90;;;-144.05;85.07;125687.94;5037179;28;20025;-80
2022/10/11 02:53:25;;;;;;;14.80;4.50;;;6.10;99.90;;;-144.05;85.17;125687.94;5056314;28;20392;-83
2022/10/11 02:55:54;;;;;;;19.15;5.22;;;6.10;99.90;;;-144.05;85.30;125687.94;5037503;28;20127;-83
2022/10/11 02:58:23;;;;;;;18.45;5.47;;;6.10;99.90;;;-144.05;85.29;125687.94;5055150;28;20399;-82
2022/10/11 03:00:49;;;;;;;20.73;6.65;;;6.00;99.90;;;-144.05;85.41;125687.94;5055633;28;20025;-84
2022/10/11 03:03:15;;;;;;;21.83;6.60;;;6.00;99.90;;;-144.05;85.45;125687.94;5055628;28;20029;-79
2022/10/11 03:05:42;;;;;;;25.88;6.28;;;6.00;99.90;;;-144.05;85.50;125687.94;5037665;28;20506;-82
2022/10/11 03:08:12;;;;;;;19.20;6.70;;;6.00;99.90;;;-144.05;85.50;125687.94;5037797;28;20067;-82
2022/10/11 03:10:40;;;;;;;20.00;6.85;;;6.10;99.90;;;-144.05;85.45;125687.94;5037755;28;20025;-81
2022/10/11 03:13:06;;;;;;;19.38;5.60;;;6.10;99.90;;;-144.05;85.38;125687.94;5037794;28;20546;-80
2022/10/11 03:15:34;;;;;;;13.27;5.47;;;6.10;99.90;;;-144.05;85.33;125687.94;5037069;28;20036;-81
2022/10/11 03:18:00;;;;;;;21.35;7.07;;;6.10;99.90;;;-144.05;85.38;125687.94;5037507;28;20492;-80
2022/10/11 03:20:26;;;;;;;20.73;6.82;;;6.00;99.90;;;-144.05;85.52;125687.94;5037454;28;20064;-82
2022/10/11 03:22:52;;;;;;;17.02;6.82;;;6.00;99.90;;;-144.05;85.48;125687.94;5038052;28;20107;-82
2022/10/11 03:25:18;;;;;;;17.77;6.18;;;6.10;99.90;;;-144.05;85.29;125687.94;5092044;22;20509;-77
2022/10/11 03:27:44;;;;;;;14.63;6.60;;;6.10;99.90;;;-144.05;85.51;125687.94;5063614;28;20028;-75
2022/10/11 03:30:12;;;;;;;15.80;6.32;;;6.00;99.90;;;-144.05;85.59;125687.94;5078247;28;20037;-78
2022/10/11 03:32:38;;;;;;;17.35;6.47;;;6.00;99.90;;;-144.05;85.20;125687.94;5072308;28;20074;-79
2022/10/11 03:35:05;;;;;;;22.90;6.65;;;6.00;99.90;;;-144.05;85.14;125687.94;5056275;28;20473;-79
2022/10/11 03:37:31;;;;;;;16.35;6.60;;;5.90;99.90;;;-144.05;85.21;125687.94;5073763;28;20033;-79
2022/10/11 03:39:56;;;;;;;18.58;6.50;;;5.80;99.90;;;-144.05;85.31;125687.94;5073777;28;20024;-77
2022/10/11 03:42:22;;;;;;;22.30;6.38;;;5.80;99.90;;;-144.05;85.37;125687.94;5074136;28;20028;-78
2022/10/11 03:44:50;;;;;;;14.73;6.38;;;5.80;99.90;;;-144.05;85.39;125687.94;5073920;28;20052;-77
2022/10/11 03:47:17;;;;;;;23.02;6.90;;;5.80;99.90;;;-144.05;85.52;125687.94;5055609;28;20032;-78
2022/10/11 03:49:43;;;;;;;14.98;6.75;;;5.90;99.90;;;-144.05;85.31;125687.94;5073615;28;20028;-77
2022/10/11 03:52:10;;;;;;;14.20;6.60;;;5.90;99.90;;;-144.05;85.36;125687.94;5055823;28;20043;-77
2022/10/11 03:54:36;;;;;;;21.65;6.90;;;5.80;99.90;;;-144.05;85.42;125687.94;5073529;28;20089;-80
2022/10/11 03:57:02;;;;;;;20.60;6.32;;;5.80;99.90;;;-144.05;85.22;125687.94;5077143;28;20464;-80
2022/10/11 03:59:28;;;;;;;18.90;6.32;;;5.70;99.90;;;-144.05;85.24;125687.94;5055577;28;20024;-78
2022/10/11 04:01:53;;;;;;;11.98;5.70;;;5.70;99.90;;;-144.05;85.15;125687.94;5055083;28;20455;-78
2022/10/11 04:04:19;;;;;;;16.85;5.47;;;5.60;99.90;;;-144.05;85.11;125687.94;5072865;28;20025;-79
2022/10/11 04:06:45;;;;;;;17.83;6.32;;;5.50;99.90;;;-144.05;85.19;125687.94;5073079;28;20111;-79
2022/10/11 04:09:11;;;;;;;18.55;7.00;;;5.60;99.90;;;-144.05;85.21;125687.94;5071493;28;20060;-77
2022/10/11 04:11:36;;;;;;;13.75;6.70;;;5.50;99.90;;;-144.05;85.38;125687.94;5055071;28;20564;-77
2022/10/11 04:14:02;;;;;;;19.27;6.35;;;5.50;99.90;;;-144.05;85.29;125687.94;5073480;28;20098;-79
2022/10/11 04:16:28;;;;;;;27.10;8.20;;;5.50;99.90;;;-144.05;85.22;125687.94;5074420;28;20033;-78
2022/10/11 04:18:54;;;;;;;23.55;8.27;;;5.40;99.90;;;-144.05;85.38;125687.94;5072823;28;20033;-79
2022/10/11 04:21:20;;;;;;;23.77;7.97;;;5.50;99.90;;;-144.05;85.67;125687.94;5072602;28;20101;-79
2022/10/11 04:23:45;;;;;;;19.27;8.18;;;5.50;99.90;;;-144.05;85.47;125687.94;5071300;28;20028;-78
2022/10/11 04:26:12;;;;;;;22.30;8.00;;;5.50;99.90;;;-144.05;85.67;125687.94;5072279;28;20029;-77
2022/10/11 04:28:37;;;;;;;21.60;8.75;;;5.50;99.90;;;-144.05;85.43;125687.94;5072604;28;20039;-78
2022/10/11 04:31:05;;;;;;;24.63;8.95;;;5.50;99.90;;;-144.05;85.50;125687.94;5072306;28;20029;-79
2022/10/11 04:33:31;;;;;;;18.80;7.13;;;5.50;99.90;;;-144.05;85.41;125687.94;5073021;28;20025;-80
2022/10/11 04:35:57;;;;;;;19.25;7.80;;;5.50;99.90;;;-144.05;85.39;125687.94;5071753;28;20495;-78
2022/10/11 04:38:23;;;;;;;21.60;8.60;;;5.50;99.90;;;-144.05;85.47;125687.94;5073272;28;20060;-80
2022/10/11 04:40:49;;;;;;;24.60;7.78;;;5.40;99.90;;;-144.05;85.27;125687.94;5070738;28;20028;-79
2022/10/11 04:43:16;;;;;;;19.50;8.13;;;5.40;99.90;;;-144.05;85.54;125687.94;5072090;28;20055;-78
2022/10/11 04:45:43;;;;;;;26.25;8.15;;;5.40;99.90;;;-144.05;85.57;125687.94;5071889;28;20029;-79
2022/10/11 04:48:09;;;;;;;18.52;7.80;;;5.40;99.90;;;-144.05;85.56;125687.94;5071896;28;20028;-79
2022/10/11 04:50:36;;;;;;;24.88;8.90;;;5.40;99.90;;;-144.05;85.52;125687.94;5071839;28;20037;-79
2022/10/11 04:53:02;;;;;;;34.63;9.25;;;5.40;99.90;;;-144.05;85.83;125687.94;5072084;28;20032;-78
2022/10/11 04:55:28;;;;;;;25.35;9.82;;;5.40;99.90;;;-144.05;85.74;125687.94;5072310;28;20046;-77
2022/10/11 04:57:54;;;;;;;26.55;8.82;;;5.40;99.90;;;-144.05;85.64;125687.94;5072302;28;20028;-77
2022/10/11 05:00:20;;;;;;;21.23;8.82;;;5.50;99.90;;;-144.05;85.51;125687.94;5071982;28;20043;-78
2022/10/11 05:02:46;;;;;;;28.55;9.40;;;5.40;99.90;;;-144.05;85.43;125687.94;5072325;28;20492;-80
2022/10/11 05:05:16;;;;;;;20.88;8.45;;;5.40;99.90;;;-144.05;85.76;125687.94;5072102;28;20028;-79
2022/10/11 05:07:43;;;;;;;23.48;8.98;;;5.40;99.90;;;-144.05;85.48;125687.94;5053846;28;20047;-79
2022/10/11 05:10:09;;;;;;;21.33;8.18;;;5.40;99.90;;;-144.05;85.56;125687.94;5053681;28;20037;-78
2022/10/11 05:12:35;;;;;;;19.75;8.30;;;5.40;99.90;;;-144.05;85.29;125687.94;5070450;28;20032;-79
2022/10/11 05:15:02;;;;;;;23.70;8.18;;;5.40;99.90;;;-144.05;85.59;125687.94;5071429;28;20040;-77
2022/10/11 05:17:27;;;;;;;24.00;8.30;;;5.40;99.90;;;-144.05;85.36;125687.94;5070063;28;20028;-78
2022/10/11 05:19:53;;;;;;;22.80;8.25;;;5.30;99.90;;;-144.05;85.24;125687.94;5075865;28;20036;-79
2022/10/11 05:22:19;;;;;;;21.90;7.82;;;5.30;99.90;;;-144.05;85.49;125687.94;5073241;28;20501;-78
2022/10/11 05:24:45;;;;;;;23.80;7.45;;;5.20;99.90;;;-144.05;85.21;125687.94;5072804;28;20124;-79
2022/10/11 05:27:11;;;;;;;22.42;8.30;;;5.20;99.90;;;-144.05;85.22;125687.94;5072507;28;20031;-79
2022/10/11 05:29:37;;;;;;;25.85;9.90;;;5.20;99.90;;;-144.05;85.61;125687.94;5073951;28;20048;-79
2022/10/11 05:32:03;;;;;;;26.88;10.07;;;5.20;99.90;;;-144.05;85.69;125687.94;5074187;28;20070;-79
2022/10/11 05:34:29;;;;;;;31.52;9.45;;;5.30;99.90;;;-144.05;85.45;125687.94;5074751;28;20033;-79
2022/10/11 05:36:56;;;;;;;26.77;8.48;;;5.30;99.90;;;-144.05;85.14;125687.94;5074455;28;20035;-79
2022/10/11 05:39:22;;;;;;;32.60;9.32;;;5.30;99.90;;;-144.05;85.11;125687.94;5074183;28;20103;-78
2022/10/11 05:41:48;;;;;;;22.75;8.32;;;5.30;99.90;;;-144.05;85.01;125687.94;5055960;28;20024;-80
2022/10/11 05:44:14;;;;;;;20.48;8.98;;;5.20;99.90;;;-144.05;85.02;125687.94;5056346;28;20035;-79
2022/10/11 05:46:40;;;;;;;22.85;9.10;;;5.30;99.90;;;-144.05;85.14;125687.94;5074750;28;20021;-79
2022/10/11 05:49:05;;;;;;;23.98;8.75;;;5.20;99.90;;;-144.05;85.18;125687.94;5058798;28;20028;-78
2022/10/11 05:51:31;;;;;;;23.52;8.68;;;5.30;99.90;;;-144.05;85.10;125687.94;5078878;28;20391;-78
2022/10/11 05:53:57;;;;;;;20.30;7.60;;;5.30;99.90;;;-144.05;85.01;125687.94;5078673;28;20039;-79
2022/10/11 05:56:25;;;;;;;31.55;8.57;;;5.20;99.90;;;-144.05;84.99;125687.94;5060746;28;20025;-76
2022/10/11 05:58:52;;;;;;;19.77;8.80;;;5.20;99.90;;;-144.05;85.34;125687.94;5076971;28;20035;-78
2022/10/11 06:01:24;;;;;;;27.75;11.13;;;5.20;99.90;;;-144.05;85.64;125687.94;5076597;28;20509;-76
2022/10/11 06:03:51;;;;;;;20.42;9.20;;;5.20;99.90;;;-144.05;85.47;125687.94;5060118;28;20029;-79
2022/10/11 06:06:18;;;;;;;29.98;10.55;;;5.30;99.90;;;-144.05;85.57;125687.94;5076851;28;20025;-78
2022/10/11 06:08:46;;;;;;;27.42;10.82;;;5.40;99.90;;;-144.05;85.54;125687.94;5078068;28;20031;-77
2022/10/11 06:11:21;;;;;;;24.73;9.82;;;5.40;99.90;;;-144.05;85.50;125687.94;5076675;28;20040;-78
2022/10/11 06:13:47;;;;;;;25.53;9.80;;;5.50;99.90;;;-144.05;85.53;125687.94;5061145;28;20085;-78
2022/10/11 06:16:14;;;;;;;24.98;9.23;;;5.50;99.90;;;-144.05;85.62;125687.94;5060674;28;20031;-79
2022/10/11 06:18:40;;;;;;;29.42;9.55;;;5.60;99.90;;;-144.05;85.66;125687.94;5077550;28;20047;-78
2022/10/11 06:21:06;;;;;;;29.90;11.80;;;5.70;99.90;;;-144.05;85.74;125687.94;5060746;28;20586;-79
2022/10/11 06:23:32;;;;;;;28.27;10.75;;;5.80;99.90;;;-144.05;85.82;125687.94;5078912;28;20025;-79
2022/10/11 06:26:05;;;;;;;22.02;10.13;;;5.90;99.90;;;-144.05;85.80;125687.94;5076522;28;20029;-77
2022/10/11 06:28:33;;;;;;;27.77;10.95;;;6.00;99.90;;;-144.05;85.94;125687.94;5059877;28;20028;-80
2022/10/11 06:31:04;;;;;;;28.63;12.07;;;6.10;99.90;;;-144.05;86.03;125687.94;5077727;28;20512;-78
2022/10/11 06:33:30;;;;;;;22.80;10.10;;;6.20;99.90;;;-144.05;85.80;125687.94;5078621;28;20032;-78
2022/10/11 06:36:18;;;;;;;23.80;10.98;;;6.30;99.90;;;-144.05;86.04;125687.94;5078190;28;20517;-77
2022/10/11 06:38:44;;;;;;;28.70;10.93;;;6.40;99.90;;;-144.05;86.17;125687.94;5060441;28;20040;-78
2022/10/11 06:41:23;;;;;;;27.35;11.77;;;6.70;99.90;;;-144.05;86.19;125687.94;5060329;28;20048;-82
2022/10/11 06:43:49;;;;;;;38.22;12.07;;;6.80;99.90;;;-144.05;86.00;125687.94;5080035;28;20059;-78
2022/10/11 06:46:18;;;;;;;25.75;10.57;;;7.00;99.90;;;-144.05;86.16;125687.94;5059381;28;20025;-78
2022/10/11 06:48:49;;;;;;;23.17;10.82;;;7.10;99.90;;;-144.05;86.10;125687.94;5059473;28;20085;-80
2022/10/11 06:51:19;;;;;;;25.88;12.57;;;7.40;99.90;;;-144.05;85.95;125687.94;5076263;28;20036;-80
2022/10/11 06:53:54;;;;;;;29.92;14.00;;;7.50;99.90;;;-144.05;85.85;125687.94;5078058;28;20028;-79
2022/10/11 06:56:20;;;;;;;28.63;12.13;;;7.70;99.90;;;-144.05;85.83;125687.94;5077527;28;20075;-78
2022/10/11 06:58:46;;;;;;;28.08;12.07;;;7.90;99.90;;;-144.05;85.80;125687.94;5077303;28;20048;-77
2022/10/11 07:01:17;;;;;;;26.85;12.07;;;8.00;99.90;;;-144.05;85.49;125687.94;5077117;28;20098;-78
2022/10/11 07:03:44;;;;;;;29.42;12.85;;;8.20;99.90;;;-144.05;85.03;125687.94;5077320;28;20051;-78
2022/10/11 07:06:38;;;;;;;26.55;12.85;;;8.40;99.90;;;-144.05;84.52;125687.94;5078208;28;20028;-77
2022/10/11 07:09:06;;;;;;;28.90;12.80;;;8.70;99.90;;;-144.05;83.91;125687.94;5078705;28;20071;-79
2022/10/11 07:11:32;;;;;;;32.65;11.75;;;9.00;99.90;;;-144.05;83.15;125687.94;5077240;28;20064;-77
2022/10/11 07:14:06;;;;;;;27.02;11.10;;;9.10;99.90;;;-144.05;82.08;125687.94;5078996;28;20506;-76
2022/10/11 07:16:36;;;;;;;22.52;10.45;;;9.20;99.90;;;-144.05;81.96;125687.94;5078287;28;20030;-77
2022/10/11 07:19:05;;;;;;;19.30;11.00;;;9.30;99.90;;;-144.05;81.40;125687.94;5060477;28;20020;-79
2022/10/11 07:21:34;;;;;;;28.33;11.40;;;9.40;99.90;;;-144.05;79.11;125687.94;5060823;28;20048;-77
2022/10/11 07:24:01;;;;;;;24.92;11.32;;;9.40;99.90;;;-144.05;79.71;125687.94;5059855;28;20028;-77
2022/10/11 07:26:28;;;;;;;28.17;10.85;;;9.50;99.90;;;-144.05;79.22;125687.94;5077097;28;20032;-78
2022/10/11 07:28:54;;;;;;;23.90;10.18;;;9.80;99.90;;;-144.05;77.84;125687.94;5077368;28;20142;-77
2022/10/11 07:31:24;;;;;;;22.30;10.27;;;9.90;99.90;;;-144.05;74.54;125687.94;5076917;28;20027;-79
2022/10/11 07:33:50;;;;;;;20.58;9.73;;;9.90;99.90;;;-144.05;76.27;125687.94;5076411;28;20453;-79
2022/10/11 07:36:16;;;;;;;18.67;8.30;;;10.00;99.90;;;-144.05;75.63;125687.94;5077757;28;20095;-76
2022/10/11 07:38:46;;;;;;;25.88;8.68;;;10.10;99.90;;;-144.05;75.11;125687.94;5078564;28;20495;-79
2022/10/11 07:41:13;;;;;;;18.80;8.95;;;10.30;99.90;;;-144.05;74.54;125687.94;5078043;28;20028;-81
2022/10/11 07:43:39;;;;;;;16.98;8.57;;;10.70;99.90;;;-144.05;72.78;125687.94;5077840;28;20077;-79
2022/10/11 07:46:06;;;;;;;20.92;8.63;;;10.90;99.90;;;-144.05;71.57;125687.94;5076078;28;20020;-77
2022/10/11 07:48:36;;;;;;;20.85;9.52;;;11.20;99.90;;;-144.05;70.79;125687.94;5074769;28;20047;-78
2022/10/11 07:51:18;;;;;;;18.52;8.50;;;11.50;99.90;;;-144.05;68.67;125687.94;5074969;28;20492;-79
2022/10/11 07:53:56;;;;;;;18.27;8.23;;;11.80;99.90;;;-144.05;68.72;125687.94;5056907;28;20155;-77
2022/10/11 07:56:28;;;;;;;18.17;8.60;;;12.10;99.90;;;-144.05;67.05;125687.94;5074047;28;20035;-75
2022/10/11 07:58:59;;;;;;;24.33;9.30;;;12.20;99.90;;;-144.05;67.32;125687.94;5074086;28;20093;-76
2022/10/11 08:01:27;;;;;;;22.25;8.45;;;12.40;99.90;;;-144.05;66.70;125687.94;5073085;28;20043;-79
2022/10/11 08:03:55;;;;;;;22.70;7.65;;;12.70;99.90;;;-144.05;65.43;125687.94;5074094;28;20024;-79
2022/10/11 08:06:28;;;;;;;18.70;7.50;;;13.00;99.90;;;-144.05;65.24;125687.94;5078085;28;20021;-78
2022/10/11 08:08:55;;;;;;;17.55;7.85;;;13.20;99.90;;;-144.05;64.31;125687.94;5056110;28;20020;-78
2022/10/11 08:11:26;;;;;;;15.65;7.13;;;13.30;99.90;;;-144.05;63.04;125687.94;5072920;28;20044;-75
2022/10/11 08:13:53;;;;;;;25.70;8.45;;;13.50;99.90;;;-144.05;63.62;125687.94;5055699;28;20021;-78
2022/10/11 08:16:20;;;;;;;17.20;7.85;;;13.40;99.90;;;-144.05;63.46;125687.94;5073836;28;20039;-78
2022/10/11 08:18:46;;;;;;;16.10;7.28;;;13.50;99.90;;;-144.05;63.20;125687.94;5073478;28;20031;-78
2022/10/11 08:21:16;;;;;;;22.05;6.88;;;13.60;99.90;;;-144.05;63.05;125687.94;5075619;28;20025;-77
2022/10/11 08:23:42;;;;;;;19.02;8.10;;;13.60;99.90;;;-144.05;62.77;125687.94;5075323;28;20028;-79
2022/10/11 08:26:09;;;;;;;16.85;7.10;;;13.60;99.90;;;-144.05;62.51;125687.94;5057872;28;20085;-78
2022/10/11 08:28:35;;;;;;;20.60;7.82;;;13.80;99.90;;;-144.05;61.34;125687.94;5057789;28;20511;-77
2022/10/11 08:31:02;;;;;;;19.00;7.80;;;13.90;99.90;;;-144.05;61.45;125687.94;5076005;28;20056;-79
2022/10/11 08:33:29;;;;;;;15.43;6.70;;;14.00;99.90;;;-144.05;61.29;125687.94;5074513;28;20032;-75
2022/10/11 08:35:56;;;;;;;21.48;7.50;;;14.30;99.90;;;-144.05;60.27;125687.94;5074723;28;20082;-78
2022/10/11 08:38:23;;;;;;;17.20;7.55;;;14.50;99.90;;;-144.05;58.70;125687.94;5077209;28;20106;-79
2022/10/11 08:40:58;;;;;;;20.17;6.70;;;14.70;99.90;;;-144.05;58.51;125687.94;5076808;28;20336;-76
2022/10/11 08:43:53;;;;;;;17.20;6.72;;;14.70;99.90;;;-144.05;58.35;125687.94;5076151;28;20147;-76
2022/10/11 08:46:31;;;;;;;19.98;6.20;;;14.80;99.90;;;-144.05;58.09;125687.94;5047275;28;20032;-79
2022/10/11 08:49:00;;;;;;;18.98;6.50;;;14.70;99.90;;;-144.05;58.04;125687.94;5076892;28;20055;-79
2022/10/11 08:51:41;;;;;;;19.45;6.32;;;14.70;99.90;;;-144.05;57.87;125687.94;5074407;28;20020;-81
2022/10/11 08:54:39;;;;;;;17.83;6.30;;;14.60;99.90;;;-144.05;57.92;125687.94;5074130;28;20365;-77
2022/10/11 08:57:13;;;;;;;18.70;5.40;;;14.70;99.90;;;-144.05;56.31;125687.94;5057415;28;20028;-78
2022/10/11 08:59:57;;;;;;;22.08;6.40;;;14.90;99.90;;;-144.05;56.77;125687.94;5075219;28;20330;-81
2022/10/11 09:02:47;;;;;;;15.32;5.10;;;14.70;99.90;;;-144.05;57.22;125687.94;5073205;28;20044;-80
2022/10/11 09:05:17;;;;;;;13.27;5.03;;;14.50;99.90;;;-144.05;58.19;125687.94;5073787;28;20032;-77
2022/10/11 09:08:13;;;;;;;18.10;5.55;;;14.70;99.90;;;-144.05;58.49;125687.94;5056114;28;20024;-81
2022/10/11 09:10:55;;;;;;;17.98;4.97;;;14.90;99.90;;;-144.05;55.87;125687.94;5073844;28;20103;-81
2022/10/11 09:13:51;;;;;;;14.35;3.80;;;15.00;99.90;;;-144.05;55.74;125687.94;5075177;28;20033;-78
2022/10/11 09:16:38;;;;;;;13.82;4.55;;;15.20;99.90;;;-144.05;54.49;125687.94;5056671;28;20047;-81
2022/10/11 09:20:00;;;;;;;11.20;3.58;;;15.30;99.90;;;-144.05;54.08;125687.94;5056319;28;20127;-79
2022/10/11 09:22:36;;;;;;;14.23;3.38;;;15.40;99.90;;;-144.05;53.26;125687.94;5055637;28;20430;-80
2022/10/11 09:28:06;;;;;;;16.80;4.97;;;15.70;99.90;;;-144.05;53.66;125687.94;5037965;28;20057;-81
2022/10/11 09:30:44;;;;;;;15.95;4.38;;;15.60;99.90;;;-144.05;53.43;125687.94;5036968;28;20056;-80
2022/10/11 09:33:37;;;;;;;13.15;4.57;;;15.60;99.90;;;-144.05;53.93;125687.94;5036617;28;20030;-81
2022/10/11 09:36:25;;;;;;;12.77;4.25;;;15.60;99.90;;;-144.05;53.73;125687.94;5052822;28;20461;-81
2022/10/11 09:39:11;;;;;;;15.07;4.10;;;15.90;99.90;;;-144.05;53.01;125687.94;5035754;28;20116;-81
2022/10/11 09:42:09;;;;;;;18.48;4.85;;;16.10;99.90;;;-144.05;52.92;125687.94;5052015;28;20029;-80
2022/10/11 09:44:47;;;;;;;13.70;4.07;;;16.10;99.90;;;-144.05;52.42;125687.94;5036276;28;20048;-81
2022/10/11 09:47:25;;;;;;;13.70;4.05;;;16.30;99.90;;;-144.05;52.27;125687.94;5037959;28;20032;-81
2022/10/11 09:50:14;;;;;;;16.83;3.25;;;16.50;99.90;;;-144.05;49.47;125687.94;5035289;28;20089;-82
2022/10/11 09:52:55;;;;;;;15.05;2.70;;;16.80;99.90;;;-144.05;48.49;125687.94;5035494;28;20025;-82
2022/10/11 09:55:39;;;;;;;15.32;2.22;;;17.00;99.90;;;-144.05;47.39;125687.94;5035564;28;20033;-82
2022/10/11 09:58:22;;;;;;;8.85;2.13;;;17.30;99.90;;;-144.05;46.20;125687.94;5035445;28;20029;-79
2022/10/11 10:01:02;;;;;;;12.02;2.67;;;17.40;99.90;;;-144.05;44.90;125687.94;5035754;28;20033;-82
2022/10/11 10:03:46;;;;;;;9.43;2.53;;;17.60;99.90;;;-144.05;45.76;125687.94;5035903;28;20097;-82
2022/10/11 10:06:27;;;;;;;8.50;2.47;;;17.50;99.90;;;-144.05;45.13;125687.94;5036663;28;20035;-83
2022/10/11 10:08:54;;;;;;;9.50;2.70;;;17.60;99.90;;;-144.05;45.66;125687.94;5034952;28;20036;-82
2022/10/11 10:11:20;;;;;;;9.48;2.10;;;17.60;99.90;;;-144.05;44.19;125687.94;5033660;28;20167;-81
2022/10/11 10:13:55;;;;;;;9.57;2.03;;;17.60;99.90;;;-144.05;42.55;125687.94;5033677;28;20029;-82
2022/10/11 10:16:36;;;;;;;13.18;2.03;;;17.60;99.90;;;-144.05;42.32;125687.94;5050691;28;20076;-82
2022/10/11 10:19:20;;;;;;;12.65;2.72;;;17.30;99.90;;;-144.05;43.68;125687.94;5032912;28;20116;-81
2022/10/11 10:21:52;;;;;;;7.50;2.00;;;16.60;99.90;;;-144.05;44.92;125687.94;5049421;28;20122;-82
2022/10/11 10:24:28;;;;;;;13.60;2.30;;;16.30;99.90;;;-144.05;44.77;125687.94;5049917;28;20064;-82